createdAt,value
2018-02-03T00:00:54.241Z,100374.25
2018-02-03T00:03:19.995Z,100378.59
2018-02-03T00:05:45.767Z,100380.72
2018-02-03T00:08:11.538Z,100379.86
2018-02-03T00:10:37.286Z,100382.48
2018-02-03T00:13:03.059Z,100380.73
2018-02-03T00:15:28.814Z,100386.78
2018-02-03T00:17:54.582Z,100392.86
2018-02-03T00:20:20.334Z,100388.06
2018-02-03T00:22:46.105Z,100393.30
2018-02-03T00:25:11.872Z,100395.92
2018-02-03T00:27:37.626Z,100391.58
2018-02-03T00:30:03.403Z,100398.48
2018-02-03T00:32:29.165Z,100396.30
2018-02-03T00:34:54.921Z,100397.17
2018-02-03T00:37:20.684Z,100402.81
2018-02-03T00:39:46.466Z,100400.22
2018-02-03T00:42:12.202Z,100398.91
2018-02-03T00:44:37.973Z,100401.95
2018-02-03T00:47:03.722Z,100398.48
2018-02-03T00:49:29.478Z,100406.70
2018-02-03T00:51:55.233Z,100408.86
2018-02-03T00:54:20.990Z,100405.79
2018-02-03T00:56:46.743Z,100409.66
2018-02-03T00:59:12.495Z,100415.32
2018-02-03T01:01:38.251Z,100418.73
2018-02-03T01:04:04.022Z,100413.53
2018-02-03T01:06:29.775Z,100411.38
2018-02-03T01:08:55.536Z,100411.38
2018-02-03T01:11:21.287Z,100421.34
2018-02-03T01:13:47.059Z,100425.68
2018-02-03T01:16:12.803Z,100419.16
2018-02-03T01:18:38.564Z,100422.63
2018-02-03T01:21:04.314Z,100422.20
2018-02-03T01:23:30.066Z,100423.06
2018-02-03T01:25:55.825Z,100429.11
2018-02-03T01:28:21.578Z,100428.27
2018-02-03T01:30:47.341Z,100429.09
2018-02-03T01:33:13.082Z,100435.58
2018-02-03T01:35:38.850Z,100425.11
2018-02-03T01:38:04.598Z,100430.28
2018-02-03T01:40:30.358Z,100423.77
2018-02-03T01:42:56.122Z,100428.50
2018-02-03T01:45:21.875Z,100422.89
2018-02-03T01:47:51.608Z,100425.48
2018-02-03T01:50:17.383Z,100428.10
2018-02-03T01:52:43.140Z,100430.27
2018-02-03T01:55:08.912Z,100427.25
2018-02-03T01:57:34.670Z,100422.48
2018-02-03T02:00:00.450Z,100427.28
2018-02-03T02:02:26.194Z,100434.24
2018-02-03T02:04:51.963Z,100433.83
2018-02-03T02:07:17.711Z,100432.12
2018-02-03T02:09:43.466Z,100431.23
2018-02-03T02:12:09.236Z,100431.19
2018-02-03T02:14:34.982Z,100431.22
2018-02-03T02:17:00.751Z,100437.27
2018-02-03T02:19:26.489Z,100424.69
2018-02-03T02:21:52.259Z,100430.76
2018-02-03T02:24:18.015Z,100430.34
2018-02-03T02:26:43.778Z,100431.20
2018-02-03T02:29:09.514Z,100426.41
2018-02-03T02:31:35.266Z,100427.70
2018-02-03T02:34:01.042Z,100430.73
2018-02-03T02:36:26.803Z,100435.48
2018-02-03T02:38:52.559Z,100432.02
2018-02-03T02:41:18.331Z,100435.88
2018-02-03T02:43:44.084Z,100434.57
2018-02-03T02:46:09.836Z,100433.28
2018-02-03T02:48:35.608Z,100437.61
2018-02-03T02:51:01.367Z,100434.94
2018-02-03T02:53:27.143Z,100445.31
2018-02-03T02:55:52.894Z,100439.68
2018-02-03T02:58:18.666Z,100440.06
2018-02-03T03:00:44.447Z,100437.47
2018-02-03T03:03:10.215Z,100439.64
2018-02-03T03:05:35.987Z,100439.62
2018-02-03T03:08:01.763Z,100440.98
2018-02-03T03:10:27.518Z,100443.95
2018-02-03T03:12:53.285Z,100443.02
2018-02-03T03:15:19.046Z,100442.12
2018-02-03T03:17:44.808Z,100447.75
2018-02-03T03:20:10.570Z,100443.40
2018-02-03T03:22:36.329Z,100449.02
2018-02-03T03:25:02.103Z,100442.98
2018-02-03T03:27:27.846Z,100449.03
2018-02-03T03:29:53.626Z,100449.53
2018-02-03T03:32:19.383Z,100450.75
2018-02-03T03:34:45.158Z,100449.89
2018-02-03T03:37:10.913Z,100453.38
2018-02-03T03:39:36.686Z,100450.33
2018-02-03T03:42:02.435Z,100456.45
2018-02-03T03:44:28.194Z,100454.69
2018-02-03T03:46:53.962Z,100450.37
2018-02-03T03:49:19.726Z,100448.17
2018-02-03T03:51:45.491Z,100449.05
2018-02-03T03:54:11.244Z,100448.22
2018-02-03T03:56:37.003Z,100452.55
2018-02-03T03:59:02.770Z,100449.47
2018-02-03T04:01:28.514Z,100453.34
2018-02-03T04:03:54.276Z,100454.70
2018-02-03T04:06:20.026Z,100457.27
2018-02-03T04:08:46.270Z,100458.55
2018-02-03T04:11:12.468Z,100459.81
2018-02-03T04:13:38.723Z,100463.29
2018-02-03T04:16:04.514Z,100469.80
2018-02-03T04:18:30.279Z,100467.21
2018-02-03T04:20:56.030Z,100466.75
2018-02-03T04:23:21.800Z,100459.84
2018-02-03T04:25:47.570Z,100466.78
2018-02-03T04:28:13.310Z,100466.80
2018-02-03T04:30:39.082Z,100459.39
2018-02-03T04:33:04.839Z,100458.50
2018-02-03T04:35:30.610Z,100459.82
2018-02-03T04:37:56.359Z,100459.78
2018-02-03T04:40:22.114Z,100458.52
2018-02-03T04:42:47.879Z,100457.25
2018-02-03T04:45:13.641Z,100457.68
2018-02-03T04:50:11.891Z,100454.64
2018-02-03T04:52:37.647Z,100457.27
2018-02-03T04:55:03.412Z,100454.17
2018-02-03T04:57:29.178Z,100458.08
2018-02-03T04:59:54.947Z,100455.96
2018-02-03T05:02:20.718Z,100455.01
2018-02-03T05:04:46.470Z,100459.82
2018-02-03T05:07:12.238Z,100456.75
2018-02-03T05:09:37.989Z,100455.46
2018-02-03T05:12:03.772Z,100457.63
2018-02-03T05:14:29.518Z,100456.32
2018-02-03T05:16:55.290Z,100462.44
2018-02-03T05:19:21.055Z,100457.20
2018-02-03T05:21:46.810Z,100461.99
2018-02-03T05:24:12.562Z,100460.73
2018-02-03T05:26:38.322Z,100455.03
2018-02-03T05:29:04.070Z,100456.73
2018-02-03T05:31:29.831Z,100458.87
2018-02-03T05:33:55.590Z,100463.22
2018-02-03T05:36:21.345Z,100464.08
2018-02-03T05:38:47.102Z,100463.70
2018-02-03T05:41:12.886Z,100470.64
2018-02-03T05:43:39.624Z,100468.01
2018-02-03T05:46:05.374Z,100468.85
2018-02-03T05:48:31.127Z,100466.32
2018-02-03T05:50:56.870Z,100464.95
2018-02-03T05:53:22.635Z,100460.23
2018-02-03T05:55:48.391Z,100461.02
2018-02-03T05:58:14.154Z,100467.09
2018-02-03T06:00:39.890Z,100464.93
2018-02-03T06:03:05.626Z,100470.13
2018-02-03T06:05:31.382Z,100467.05
2018-02-03T06:07:57.150Z,100462.27
2018-02-03T06:10:22.894Z,100468.80
2018-02-03T06:12:48.654Z,100467.48
2018-02-03T06:15:14.402Z,100467.03
2018-02-03T06:17:40.163Z,100469.12
2018-02-03T06:20:05.915Z,100472.16
2018-02-03T06:22:31.680Z,100469.61
2018-02-03T06:24:57.434Z,100475.64
2018-02-03T06:27:23.221Z,100475.23
2018-02-03T06:29:48.970Z,100472.52
2018-02-03T06:32:14.722Z,100483.34
2018-02-03T06:34:40.504Z,100479.04
2018-02-03T06:37:06.246Z,100479.38
2018-02-03T06:39:31.998Z,100486.36
2018-02-03T06:41:57.755Z,100490.62
2018-02-03T06:44:23.526Z,100488.37
2018-02-03T06:46:49.288Z,100490.89
2018-02-03T06:49:15.071Z,100487.51
2018-02-03T06:51:40.808Z,100496.59
2018-02-03T06:54:06.570Z,100493.94
2018-02-03T06:56:32.334Z,100494.70
2018-02-03T06:58:58.095Z,100490.39
2018-02-03T07:01:23.842Z,100487.33
2018-02-03T07:03:49.595Z,100488.22
2018-02-03T07:06:15.337Z,100496.79
2018-02-03T07:08:41.116Z,100488.14
2018-02-03T07:11:06.876Z,100487.64
2018-02-03T07:13:32.643Z,100484.72
2018-02-03T07:15:58.396Z,100491.52
2018-02-03T07:18:24.169Z,100494.50
2018-02-03T07:20:49.927Z,100493.68
2018-02-03T07:23:15.674Z,100495.91
2018-02-03T07:25:41.446Z,100493.30
2018-02-03T07:28:07.194Z,100498.53
2018-02-03T07:30:32.975Z,100498.94
2018-02-03T07:32:58.727Z,100504.13
2018-02-03T07:35:24.495Z,100507.61
2018-02-03T07:37:50.243Z,100498.48
2018-02-03T07:40:16.014Z,100505.45
2018-02-03T07:42:41.769Z,100504.13
2018-02-03T07:45:07.539Z,100511.03
2018-02-03T07:47:33.286Z,100512.36
2018-02-03T07:49:59.059Z,100512.35
2018-02-03T07:52:24.810Z,100513.58
2018-02-03T07:54:50.576Z,100516.14
2018-02-03T07:57:17.030Z,100509.76
2018-02-03T07:59:42.804Z,100510.75
2018-02-03T08:02:08.559Z,100512.42
2018-02-03T08:04:34.327Z,100514.59
2018-02-03T08:07:00.095Z,100516.84
2018-02-03T08:09:25.859Z,100519.13
2018-02-03T08:11:51.619Z,100519.56
2018-02-03T08:14:17.375Z,100519.50
2018-02-03T08:16:43.145Z,100516.41
2018-02-03T08:19:08.911Z,100517.27
2018-02-03T08:21:41.758Z,100505.61
2018-02-03T08:24:07.515Z,100512.17
2018-02-03T08:26:33.287Z,100512.48
2018-02-03T08:28:59.039Z,100508.68
2018-02-03T08:31:24.815Z,100510.88
2018-02-03T08:33:50.570Z,100518.34
2018-02-03T08:36:16.339Z,100516.65
2018-02-03T08:38:42.086Z,100513.50
2018-02-03T08:41:07.847Z,100514.72
2018-02-03T08:43:33.594Z,100504.31
2018-02-03T08:45:59.364Z,100505.22
2018-02-03T08:48:25.110Z,100514.77
2018-02-03T08:50:50.891Z,100508.75
2018-02-03T08:53:16.636Z,100515.67
2018-02-03T08:55:42.382Z,100520.53
2018-02-03T08:58:08.143Z,100515.25
2018-02-03T09:00:33.894Z,100518.30
2018-02-03T09:02:59.656Z,100518.61
2018-02-03T09:05:25.407Z,100517.80
2018-02-03T09:07:51.153Z,100516.20
2018-02-03T09:10:16.898Z,100518.72
2018-02-03T09:12:42.648Z,100516.08
2018-02-03T09:15:08.398Z,100522.19
2018-02-03T09:17:34.171Z,100515.66
2018-02-03T09:19:59.910Z,100521.33
2018-02-03T09:22:25.671Z,100514.38
2018-02-03T09:24:51.436Z,100514.47
2018-02-03T09:27:17.200Z,100519.27
2018-02-03T09:29:42.954Z,100514.12
2018-02-03T09:32:08.714Z,100516.58
2018-02-03T09:34:34.486Z,100518.31
2018-02-03T09:37:00.234Z,100523.45
2018-02-03T09:39:26.007Z,100522.67
2018-02-03T09:41:51.760Z,100520.20
2018-02-03T09:44:17.526Z,100525.25
2018-02-03T09:46:43.288Z,100528.30
2018-02-03T09:49:09.047Z,100526.19
2018-02-03T09:51:34.830Z,100522.71
2018-02-03T09:54:00.587Z,100523.16
2018-02-03T09:56:26.360Z,100522.77
2018-02-03T09:58:52.226Z,100526.19
2018-02-03T10:01:17.982Z,100530.51
2018-02-03T10:03:43.758Z,100532.69
2018-02-03T10:06:09.515Z,100531.00
2018-02-03T10:08:35.282Z,100530.06
2018-02-03T10:11:01.049Z,100526.55
2018-02-03T10:13:26.820Z,100527.50
2018-02-03T10:15:52.586Z,100526.68
2018-02-03T10:18:18.369Z,100528.05
2018-02-03T10:20:44.118Z,100535.49
2018-02-03T10:23:09.874Z,100531.38
2018-02-03T10:25:35.647Z,100536.17
2018-02-03T10:28:01.400Z,100539.17
2018-02-03T10:30:27.168Z,100539.78
2018-02-03T10:32:52.918Z,100539.42
2018-02-03T10:35:18.715Z,100537.00
2018-02-03T10:37:44.461Z,100539.17
2018-02-03T10:40:10.239Z,100540.57
2018-02-03T10:42:36.012Z,100536.61
2018-02-03T10:45:01.783Z,100533.13
2018-02-03T10:47:27.539Z,100533.66
2018-02-03T10:49:53.303Z,100531.09
2018-02-03T10:52:19.054Z,100532.45
2018-02-03T10:54:44.831Z,100535.02
2018-02-03T10:57:10.577Z,100530.14
2018-02-03T10:59:36.372Z,100536.16
2018-02-03T11:02:02.131Z,100538.84
2018-02-03T11:04:27.879Z,100534.56
2018-02-03T11:06:53.649Z,100537.53
2018-02-03T11:09:19.398Z,100537.07
2018-02-03T11:11:45.159Z,100532.77
2018-02-03T11:14:10.911Z,100532.34
2018-02-03T11:16:36.682Z,100533.63
2018-02-03T11:19:02.442Z,100532.78
2018-02-03T11:21:28.198Z,100528.78
2018-02-03T11:23:53.970Z,100532.83
2018-02-03T11:26:19.764Z,100533.00
2018-02-03T11:28:45.499Z,100535.03
2018-02-03T11:31:11.310Z,100542.77
2018-02-03T11:33:37.055Z,100537.59
2018-02-03T11:36:02.828Z,100541.55
2018-02-03T11:38:28.632Z,100537.30
2018-02-03T11:40:54.390Z,100537.10
2018-02-03T11:43:20.159Z,100535.03
2018-02-03T11:45:45.911Z,100534.56
2018-02-03T11:48:11.679Z,100529.44
2018-02-03T11:50:37.418Z,100535.94
2018-02-03T11:53:03.207Z,100537.20
2018-02-03T11:55:28.954Z,100535.02
2018-02-03T11:57:54.715Z,100537.30
2018-02-03T12:00:20.533Z,100536.48
2018-02-03T12:02:46.613Z,100534.59
2018-02-03T12:05:12.387Z,100536.84
2018-02-03T12:07:38.171Z,100539.50
2018-02-03T12:10:03.913Z,100535.20
2018-02-03T12:12:29.674Z,100533.33
2018-02-03T12:14:55.447Z,100529.48
2018-02-03T12:17:21.212Z,100528.25
2018-02-03T12:19:46.959Z,100537.78
2018-02-03T12:22:12.720Z,100533.86
2018-02-03T12:24:38.487Z,100526.94
2018-02-03T12:27:04.262Z,100530.51
2018-02-03T12:29:30.003Z,100531.83
2018-02-03T12:31:55.758Z,100537.94
2018-02-03T12:34:21.527Z,100533.44
2018-02-03T12:36:48.070Z,100534.30
2018-02-03T12:39:13.826Z,100533.50
2018-02-03T12:41:39.585Z,100536.22
2018-02-03T12:44:05.366Z,100534.86
2018-02-03T12:46:31.139Z,100532.14
2018-02-03T12:48:56.908Z,100533.20
2018-02-03T12:51:22.647Z,100537.39
2018-02-03T12:53:48.402Z,100536.33
2018-02-03T12:56:14.159Z,100541.94
2018-02-03T12:58:39.934Z,100539.38
2018-02-03T13:01:05.694Z,100544.77
2018-02-03T13:03:31.454Z,100537.76
2018-02-03T13:05:57.214Z,100536.49
2018-02-03T13:08:22.976Z,100533.48
2018-02-03T13:10:49.242Z,100536.14
2018-02-03T13:13:15.063Z,100532.05
2018-02-03T13:15:41.587Z,100536.03
2018-02-03T13:18:07.542Z,100538.19
2018-02-03T13:20:34.940Z,100534.20
2018-02-03T13:23:00.804Z,100534.19
2018-02-03T13:25:26.546Z,100534.39
2018-02-03T13:27:52.310Z,100536.49
2018-02-03T13:30:18.060Z,100542.09
2018-02-03T13:32:43.822Z,100540.36
2018-02-03T13:35:09.718Z,100541.17
2018-02-03T13:37:35.568Z,100536.34
2018-02-03T13:40:01.338Z,100543.88
2018-02-03T13:42:27.082Z,100537.05
2018-02-03T13:44:52.822Z,100538.56
2018-02-03T13:47:18.556Z,100536.42
2018-02-03T13:49:44.309Z,100542.49
2018-02-03T13:52:10.062Z,100545.11
2018-02-03T13:54:35.802Z,100550.36
2018-02-03T13:57:01.539Z,100549.48
2018-02-03T13:59:27.282Z,100540.45
2018-02-03T14:01:53.035Z,100546.88
2018-02-03T14:04:18.793Z,100546.05
2018-02-03T14:06:44.547Z,100549.94
2018-02-03T14:09:10.307Z,100556.00
2018-02-03T14:11:36.101Z,100553.75
2018-02-03T14:14:01.834Z,100550.77
2018-02-03T14:16:27.580Z,100548.05
2018-02-03T14:18:53.346Z,100553.73
2018-02-03T14:21:19.101Z,100554.55
2018-02-03T14:26:44.525Z,100551.05
2018-02-03T14:29:10.283Z,100561.92
2018-02-03T14:31:36.041Z,100562.33
2018-02-03T14:34:01.783Z,100566.16
2018-02-03T14:36:27.548Z,100569.22
2018-02-03T14:38:53.299Z,100572.63
2018-02-03T14:41:19.035Z,100576.09
2018-02-03T14:43:44.869Z,100570.87
2018-02-03T14:46:10.631Z,100578.55
2018-02-03T14:48:36.379Z,100583.22
2018-02-03T14:51:02.135Z,100578.06
2018-02-03T14:53:27.886Z,100576.76
2018-02-03T14:55:53.635Z,100583.66
2018-02-03T14:58:19.380Z,100588.86
2018-02-03T15:00:45.119Z,100590.50
2018-02-03T15:03:10.866Z,100594.84
2018-02-03T15:05:36.620Z,100588.84
2018-02-03T15:08:02.383Z,100583.16
2018-02-03T15:10:28.191Z,100593.54
2018-02-03T15:12:53.928Z,100601.33
2018-02-03T15:15:19.666Z,100604.02
2018-02-03T15:17:45.483Z,100601.84
2018-02-03T15:20:11.247Z,100603.47
2018-02-03T15:22:37.020Z,100599.67
2018-02-03T15:25:02.766Z,100599.91
2018-02-03T15:27:28.594Z,100600.02
2018-02-03T15:29:54.334Z,100599.39
2018-02-03T15:32:20.082Z,100608.45
2018-02-03T15:34:45.853Z,100608.55
2018-02-03T15:37:11.627Z,100605.02
2018-02-03T15:39:37.390Z,100621.00
2018-02-03T15:42:03.163Z,100622.31
2018-02-03T15:44:28.936Z,100623.59
2018-02-03T15:46:54.716Z,100622.28
2018-02-03T15:49:20.470Z,100621.34
2018-02-03T15:51:46.286Z,100623.98
2018-02-03T15:54:12.046Z,100622.73
2018-02-03T15:56:37.798Z,100618.72
2018-02-03T15:59:03.555Z,100614.55
2018-02-03T16:01:29.294Z,100620.55
2018-02-03T16:03:55.066Z,100621.84
2018-02-03T16:06:20.815Z,100627.08
2018-02-03T16:08:46.584Z,100627.06
2018-02-03T16:11:12.334Z,100625.31
2018-02-03T16:13:38.239Z,100627.33
2018-02-03T16:16:04.098Z,100621.83
2018-02-03T16:18:29.858Z,100626.41
2018-02-03T16:20:55.616Z,100625.64
2018-02-03T16:23:21.377Z,100627.30
2018-02-03T16:25:47.138Z,100623.06
2018-02-03T16:28:12.914Z,100627.08
2018-02-03T16:30:38.664Z,100623.91
2018-02-03T16:33:04.426Z,100630.37
2018-02-03T16:35:30.179Z,100631.55
2018-02-03T16:37:55.951Z,100632.50
2018-02-03T16:40:21.692Z,100619.03
2018-02-03T16:42:47.451Z,100631.66
2018-02-03T16:45:13.269Z,100625.80
2018-02-03T16:47:39.015Z,100625.20
2018-02-03T16:50:04.763Z,100623.84
2018-02-03T16:52:30.519Z,100629.88
2018-02-03T16:54:56.278Z,100637.84
2018-02-03T16:57:22.026Z,100642.52
2018-02-03T16:59:47.816Z,100642.94
2018-02-03T17:02:13.571Z,100639.16
2018-02-03T17:04:39.342Z,100641.73
2018-02-03T17:07:05.094Z,100640.85
2018-02-03T17:09:30.858Z,100649.91
2018-02-03T17:11:56.610Z,100649.50
2018-02-03T17:14:22.383Z,100652.59
2018-02-03T17:16:48.374Z,100649.98
2018-02-03T17:19:14.131Z,100653.52
2018-02-03T17:21:39.875Z,100647.88
2018-02-03T17:24:05.650Z,100655.55
2018-02-03T17:26:31.387Z,100656.09
2018-02-03T17:28:57.168Z,100662.88
2018-02-03T17:31:22.907Z,100659.89
2018-02-03T17:33:48.659Z,100664.62
2018-02-03T17:36:20.632Z,100663.39
2018-02-03T17:38:46.432Z,100659.47
2018-02-03T17:41:12.251Z,100665.97
2018-02-03T17:43:38.040Z,100669.44
2018-02-03T17:46:10.027Z,100674.56
2018-02-03T17:48:35.873Z,100673.43
2018-02-03T17:51:01.837Z,100672.44
2018-02-03T17:53:27.554Z,100675.84
2018-02-03T17:55:59.519Z,100675.55
2018-02-03T17:58:25.285Z,100679.52
2018-02-03T18:00:51.059Z,100680.73
2018-02-03T18:03:16.819Z,100687.50
2018-02-03T18:05:42.631Z,100684.50
2018-02-03T18:08:08.434Z,100686.49
2018-02-03T18:10:34.234Z,100690.39
2018-02-03T18:12:59.991Z,100691.55
2018-02-03T18:15:25.985Z,100696.94
2018-02-03T18:17:51.772Z,100697.40
2018-02-03T18:20:17.539Z,100700.55
2018-02-03T18:22:43.346Z,100695.56
2018-02-03T18:25:09.111Z,100703.09
2018-02-03T18:27:34.875Z,100693.87
2018-02-03T18:30:00.647Z,100695.63
2018-02-03T18:32:26.402Z,100699.53
2018-02-03T18:34:52.169Z,100696.88
2018-02-03T18:37:17.926Z,100696.52
2018-02-03T18:39:43.727Z,100694.36
2018-02-03T18:42:09.528Z,100702.22
2018-02-03T18:44:35.408Z,100703.45
2018-02-03T18:47:01.239Z,100707.28
2018-02-03T18:49:26.984Z,100711.73
2018-02-03T18:51:52.742Z,100711.64
2018-02-03T18:54:18.545Z,100707.34
2018-02-03T18:56:44.336Z,100715.95
2018-02-03T18:59:10.071Z,100716.46
2018-02-03T19:01:35.854Z,100708.16
2018-02-03T19:04:01.603Z,100720.31
2018-02-03T19:06:27.379Z,100717.69
2018-02-03T19:08:53.121Z,100719.92
2018-02-03T19:11:18.879Z,100728.09
2018-02-03T19:13:44.636Z,100731.61
2018-02-03T19:16:10.402Z,100728.08
2018-02-03T19:18:36.163Z,100733.80
2018-02-03T19:21:01.938Z,100731.64
2018-02-03T19:23:27.695Z,100739.56
2018-02-03T19:25:53.474Z,100743.38
2018-02-03T19:28:19.227Z,100741.17
2018-02-03T19:30:44.980Z,100746.01
2018-02-03T19:33:10.743Z,100750.69
2018-02-03T19:38:18.440Z,100751.71
2018-02-03T19:40:44.180Z,100756.69
2018-02-03T19:43:09.956Z,100758.55
2018-02-03T19:45:35.712Z,100772.40
2018-02-03T19:48:01.483Z,100766.02
2018-02-03T19:50:27.246Z,100759.51
2018-02-03T19:52:53.042Z,100765.09
2018-02-03T19:55:18.805Z,100775.02
2018-02-03T19:57:44.594Z,100770.39
2018-02-03T20:00:10.348Z,100767.62
2018-02-03T20:02:36.136Z,100765.10
2018-02-03T20:05:01.884Z,100778.95
2018-02-03T20:07:27.678Z,100773.73
2018-02-03T20:09:53.458Z,100777.64
2018-02-03T20:12:19.216Z,100774.98
2018-02-03T20:14:45.047Z,100783.75
2018-02-03T20:17:10.813Z,100780.40
2018-02-03T20:19:36.577Z,100788.14
2018-02-03T20:22:02.361Z,100793.34
2018-02-03T20:24:28.435Z,100788.84
2018-02-03T20:26:54.209Z,100791.11
2018-02-03T20:29:19.976Z,100790.28
2018-02-03T20:31:45.736Z,100792.84
2018-02-03T20:34:11.507Z,100797.32
2018-02-03T20:36:37.298Z,100799.73
2018-02-03T20:39:03.109Z,100799.00
2018-02-03T20:41:28.876Z,100799.42
2018-02-03T20:43:54.646Z,100801.61
2018-02-03T20:46:20.414Z,100798.48
2018-02-03T20:48:46.196Z,100799.81
2018-02-03T20:51:11.958Z,100798.44
2018-02-03T20:53:37.742Z,100798.02
2018-02-03T20:56:03.530Z,100799.33
2018-02-03T20:58:29.287Z,100804.08
2018-02-03T21:00:55.051Z,100804.52
2018-02-03T21:03:20.835Z,100804.08
2018-02-03T21:05:46.603Z,100804.94
2018-02-03T21:08:12.387Z,100806.66
2018-02-03T21:10:38.263Z,100811.84
2018-02-03T21:13:04.082Z,100814.00
2018-02-03T21:15:29.855Z,100818.34
2018-02-03T21:17:55.628Z,100815.30
2018-02-03T21:20:22.235Z,100817.04
2018-02-03T21:22:47.995Z,100824.84
2018-02-03T21:25:13.761Z,100819.61
2018-02-03T21:27:39.528Z,100833.47
2018-02-03T21:30:05.299Z,100839.58
2018-02-03T21:32:31.072Z,100843.94
2018-02-03T21:34:56.839Z,100848.70
2018-02-03T21:37:22.603Z,100843.94
2018-02-03T21:39:48.355Z,100853.89
2018-02-03T21:42:14.133Z,100853.81
2018-02-03T21:44:40.092Z,100852.07
2018-02-03T21:47:05.891Z,100851.27
2018-02-03T21:49:31.643Z,100859.09
2018-02-03T21:51:57.437Z,100853.34
2018-02-03T21:54:23.188Z,100859.84
2018-02-03T21:56:48.954Z,100865.89
2018-02-03T21:59:14.696Z,100868.52
2018-02-03T22:01:40.531Z,100869.32
2018-02-03T22:04:06.320Z,100871.84
2018-02-03T22:06:32.063Z,100873.55
2018-02-03T22:08:58.035Z,100877.83
2018-02-03T22:11:23.811Z,100887.70
2018-02-03T22:13:49.562Z,100881.59
2018-02-03T22:16:15.380Z,100893.16
2018-02-03T22:18:41.137Z,100895.31
2018-02-03T22:21:06.905Z,100901.40
2018-02-03T22:23:32.660Z,100905.33
2018-02-03T22:25:59.020Z,100911.63
2018-02-03T22:28:25.829Z,100908.24
2018-02-03T22:30:51.601Z,100908.69
2018-02-03T22:33:17.363Z,100909.39
2018-02-03T22:35:43.693Z,100913.70
2018-02-03T22:38:09.468Z,100924.53
2018-02-03T22:40:35.234Z,100925.86
2018-02-03T22:43:01.001Z,100918.92
2018-02-03T22:45:26.760Z,100918.45
2018-02-03T22:47:52.522Z,100918.36
2018-02-03T22:50:18.291Z,100918.77
2018-02-03T22:52:44.059Z,100922.25
2018-02-03T22:55:09.822Z,100929.13
2018-02-03T22:57:35.575Z,100928.68
2018-02-03T23:00:01.334Z,100926.59
2018-02-03T23:02:33.142Z,100927.32
2018-02-03T23:04:58.897Z,100930.42
2018-02-03T23:07:24.663Z,100934.76
2018-02-03T23:09:50.836Z,100932.09
2018-02-03T23:12:16.952Z,100926.94
2018-02-03T23:14:43.417Z,100924.34
2018-02-03T23:17:09.768Z,100939.48
2018-02-03T23:19:35.559Z,100928.23
2018-02-03T23:22:01.323Z,100933.46
2018-02-03T23:24:27.078Z,100937.45
2018-02-03T23:26:52.841Z,100934.45
2018-02-03T23:29:18.610Z,100936.09
2018-02-03T23:31:44.358Z,100932.61
2018-02-03T23:34:10.127Z,100934.28
2018-02-03T23:36:35.875Z,100932.07
2018-02-03T23:39:01.652Z,100938.63
2018-02-03T23:41:27.394Z,100935.52
2018-02-03T23:43:53.160Z,100937.27
2018-02-03T23:46:18.913Z,100934.25
2018-02-03T23:48:44.676Z,100939.83
2018-02-03T23:51:10.446Z,100934.60
2018-02-03T23:53:36.204Z,100937.70
2018-02-03T23:56:01.984Z,100939.80
2018-02-03T23:58:27.763Z,100945.08
